createdAt,value
2023-02-27T00:01:59.898Z,8.25
2023-02-27T00:04:26.408Z,8.20
2023-02-27T00:06:52.915Z,6.35
2023-02-27T00:09:19.447Z,7.78
2023-02-27T00:11:45.863Z,11.05
2023-02-27T00:14:12.316Z,12.20
2023-02-27T00:16:38.728Z,10.73
2023-02-27T00:19:05.187Z,8.43
2023-02-27T00:21:32.575Z,8.35
2023-02-27T00:23:59.139Z,8.03
2023-02-27T00:26:25.769Z,6.70
2023-02-27T00:28:52.234Z,7.03
2023-02-27T00:31:19.021Z,6.78
2023-02-27T00:33:45.542Z,8.13
2023-02-27T00:36:12.104Z,7.10
2023-02-27T00:38:38.544Z,9.98
2023-02-27T00:41:05.135Z,5.75
2023-02-27T00:43:31.655Z,9.35
2023-02-27T00:45:58.236Z,5.95
2023-02-27T00:48:24.773Z,6.13
2023-02-27T00:50:51.223Z,7.93
2023-02-27T00:53:18.113Z,7.32
2023-02-27T00:58:10.902Z,7.85
2023-02-27T01:00:37.526Z,8.70
2023-02-27T01:03:04.202Z,7.72
2023-02-27T01:05:30.892Z,7.53
2023-02-27T01:07:57.405Z,6.05
2023-02-27T01:10:23.959Z,6.57
2023-02-27T01:12:50.444Z,8.68
2023-02-27T01:15:16.999Z,5.95
2023-02-27T01:17:44.076Z,4.88
2023-02-27T01:20:12.504Z,5.73
2023-02-27T01:22:39.331Z,7.50
2023-02-27T01:25:07.477Z,6.82
2023-02-27T01:27:34.133Z,4.60
2023-02-27T01:30:00.663Z,6.40
2023-02-27T01:32:27.316Z,6.65
2023-02-27T01:34:53.831Z,7.85
2023-02-27T01:37:20.374Z,7.88
2023-02-27T01:39:46.930Z,7.38
2023-02-27T01:42:20.898Z,9.55
2023-02-27T01:45:12.038Z,7.10
2023-02-27T01:47:42.614Z,5.90
2023-02-27T01:50:10.469Z,4.00
2023-02-27T01:52:39.555Z,6.60
2023-02-27T01:55:08.658Z,8.47
2023-02-27T01:57:36.225Z,6.23
2023-02-27T02:00:04.329Z,7.67
2023-02-27T02:02:39.169Z,6.73
2023-02-27T02:05:07.543Z,7.60
2023-02-27T02:07:36.260Z,6.50
2023-02-27T02:10:03.470Z,8.30
2023-02-27T02:12:34.132Z,7.87
2023-02-27T02:15:00.639Z,9.27
2023-02-27T02:17:40.089Z,5.65
2023-02-27T02:20:23.655Z,9.97
2023-02-27T02:23:11.752Z,5.33
2023-02-27T02:26:29.245Z,7.00
2023-02-27T02:29:21.724Z,7.63
2023-02-27T02:32:08.862Z,5.80
2023-02-27T02:34:50.333Z,7.13
2023-02-27T02:37:26.276Z,4.70
2023-02-27T02:40:05.270Z,7.00
2023-02-27T02:42:57.513Z,4.80
2023-02-27T02:45:30.900Z,6.07
2023-02-27T02:48:18.828Z,6.33
2023-02-27T02:51:30.793Z,5.23
2023-02-27T02:54:31.279Z,4.83
2023-02-27T02:57:10.427Z,5.83
2023-02-27T02:59:44.635Z,6.80
2023-02-27T03:02:16.203Z,8.20
2023-02-27T03:04:56.982Z,5.30
2023-02-27T03:07:30.286Z,5.93
2023-02-27T03:10:15.571Z,4.60
2023-02-27T03:12:46.742Z,5.10
2023-02-27T03:15:19.333Z,5.70
2023-02-27T03:17:48.987Z,4.60
2023-02-27T03:20:22.212Z,7.43
2023-02-27T03:22:55.265Z,4.57
2023-02-27T03:25:23.288Z,7.57
2023-02-27T03:27:55.855Z,6.43
2023-02-27T03:30:41.119Z,8.20
2023-02-27T03:33:23.019Z,5.80
2023-02-27T03:36:31.868Z,5.57
2023-02-27T03:39:07.374Z,5.07
2023-02-27T03:41:47.009Z,5.23
2023-02-27T03:44:19.465Z,5.80
2023-02-27T03:46:46.050Z,4.93
2023-02-27T03:49:12.634Z,5.32
2023-02-27T03:51:39.297Z,6.70
2023-02-27T03:54:17.083Z,5.00
2023-02-27T03:57:04.914Z,5.97
2023-02-27T03:59:32.868Z,5.03
2023-02-27T04:02:00.862Z,5.47
2023-02-27T04:04:31.918Z,7.87
2023-02-27T04:07:23.202Z,5.57
2023-02-27T04:10:20.336Z,6.70
2023-02-27T04:12:52.830Z,6.33
2023-02-27T04:15:34.537Z,6.77
2023-02-27T04:18:29.525Z,6.60
2023-02-27T04:21:11.238Z,4.77
2023-02-27T04:23:46.281Z,6.07
2023-02-27T04:26:30.595Z,4.60
2023-02-27T04:29:09.493Z,6.27
2023-02-27T04:31:50.530Z,5.43
2023-02-27T04:34:41.375Z,4.07
2023-02-27T04:37:10.786Z,7.33
2023-02-27T04:39:43.498Z,5.70
2023-02-27T04:42:21.551Z,5.03
2023-02-27T04:44:50.277Z,5.37
2023-02-27T04:47:19.107Z,6.63
2023-02-27T04:49:57.152Z,7.20
2023-02-27T04:53:03.553Z,5.77
2023-02-27T04:56:08.643Z,5.07
2023-02-27T04:58:40.108Z,4.77
2023-02-27T05:01:18.218Z,8.97
2023-02-27T05:03:49.932Z,6.10
2023-02-27T05:06:20.352Z,7.40
2023-02-27T05:08:54.814Z,5.57
2023-02-27T05:11:41.389Z,4.93
2023-02-27T05:14:19.155Z,5.77
2023-02-27T05:16:52.478Z,6.70
2023-02-27T05:19:20.787Z,5.33
2023-02-27T05:21:56.487Z,5.90
2023-02-27T05:24:47.752Z,6.17
2023-02-27T05:27:25.383Z,4.63
2023-02-27T05:29:55.894Z,4.50
2023-02-27T05:32:40.911Z,7.77
2023-02-27T05:35:29.922Z,4.57
2023-02-27T05:38:16.265Z,4.77
2023-02-27T05:40:52.148Z,9.25
2023-02-27T05:43:27.708Z,6.32
2023-02-27T05:46:01.490Z,6.73
2023-02-27T05:48:32.351Z,6.87
2023-02-27T05:50:59.379Z,6.90
2023-02-27T05:53:30.497Z,6.00
2023-02-27T05:56:02.272Z,4.83
2023-02-27T05:58:43.348Z,5.90
2023-02-27T06:01:11.950Z,7.73
2023-02-27T06:03:40.343Z,6.83
2023-02-27T06:06:11.635Z,5.33
2023-02-27T06:08:38.287Z,10.20
2023-02-27T06:11:05.095Z,8.13
2023-02-27T06:13:31.564Z,8.50
2023-02-27T06:15:58.172Z,9.68
2023-02-27T06:18:24.745Z,5.88
2023-02-27T06:20:51.369Z,8.38
2023-02-27T06:23:18.156Z,10.65
2023-02-27T06:25:44.801Z,8.63
2023-02-27T06:28:11.964Z,11.93
2023-02-27T06:30:38.498Z,13.20
2023-02-27T06:33:05.477Z,11.02
2023-02-27T06:37:59.363Z,9.77
2023-02-27T06:40:25.901Z,9.43
2023-02-27T06:42:52.378Z,12.88
2023-02-27T06:45:19.144Z,14.27
2023-02-27T06:47:45.674Z,16.75
2023-02-27T06:50:14.025Z,14.63
2023-02-27T06:52:41.336Z,12.70
2023-02-27T06:55:09.061Z,12.53
2023-02-27T06:57:36.196Z,9.10
2023-02-27T07:00:05.374Z,7.13
2023-02-27T07:02:31.864Z,9.30
2023-02-27T07:04:58.369Z,7.75
2023-02-27T07:07:32.338Z,7.47
2023-02-27T07:10:05.256Z,6.57
2023-02-27T07:12:31.730Z,8.70
2023-02-27T07:14:58.231Z,9.98
2023-02-27T07:17:24.678Z,7.53
2023-02-27T07:19:51.176Z,10.40
2023-02-27T07:22:17.628Z,6.32
2023-02-27T07:24:44.088Z,7.97
2023-02-27T07:27:10.550Z,6.35
2023-02-27T07:29:37.151Z,6.95
2023-02-27T07:32:03.869Z,6.53
2023-02-27T07:34:30.425Z,8.35
2023-02-27T07:36:56.896Z,8.52
2023-02-27T07:39:23.398Z,9.45
2023-02-27T07:41:49.858Z,10.65
2023-02-27T07:44:16.343Z,14.15
2023-02-27T07:46:44.737Z,9.90
2023-02-27T07:49:11.417Z,11.47
2023-02-27T07:51:37.915Z,11.57
2023-02-27T07:54:04.476Z,9.65
2023-02-27T07:56:31.082Z,11.10
2023-02-27T07:58:57.614Z,11.88
2023-02-27T08:01:24.079Z,9.65
2023-02-27T08:03:50.557Z,12.82
2023-02-27T08:06:17.085Z,12.15
2023-02-27T08:08:43.728Z,10.30
2023-02-27T08:11:10.871Z,10.52
2023-02-27T08:16:23.924Z,10.85
2023-02-27T08:18:50.618Z,13.15
2023-02-27T08:21:17.134Z,8.88
2023-02-27T08:23:43.580Z,6.43
2023-02-27T08:26:10.020Z,10.93
2023-02-27T08:28:36.487Z,7.75
2023-02-27T08:31:03.049Z,9.68
2023-02-27T08:33:29.550Z,9.57
2023-02-27T08:35:57.072Z,8.73
2023-02-27T08:38:26.072Z,9.13
2023-02-27T08:40:55.708Z,8.87
2023-02-27T08:43:23.486Z,9.77
2023-02-27T08:45:50.827Z,6.80
2023-02-27T08:48:18.534Z,10.23
2023-02-27T08:50:46.468Z,6.37
2023-02-27T08:53:13.189Z,9.07
2023-02-27T08:55:39.640Z,8.15
2023-02-27T08:58:06.152Z,7.95
2023-02-27T09:00:32.943Z,5.50
2023-02-27T09:03:01.280Z,7.60
2023-02-27T09:05:28.889Z,8.90
2023-02-27T09:07:55.378Z,9.50
2023-02-27T09:10:21.906Z,8.25
2023-02-27T09:12:49.335Z,7.38
2023-02-27T09:15:15.879Z,18.40
2023-02-27T09:17:42.409Z,7.05
2023-02-27T09:20:10.792Z,7.63
2023-02-27T09:22:37.982Z,6.63
2023-02-27T09:25:05.538Z,6.03
2023-02-27T09:27:31.960Z,8.73
2023-02-27T09:29:59.354Z,6.20
2023-02-27T09:32:26.941Z,9.30
2023-02-27T09:34:54.077Z,6.43
2023-02-27T09:39:47.596Z,8.23
2023-02-27T09:42:24.128Z,8.53
2023-02-27T09:44:53.676Z,31.45
2023-02-27T09:47:26.398Z,14.13
2023-02-27T09:50:00.625Z,7.67
2023-02-27T09:52:29.600Z,9.10
2023-02-27T09:54:56.528Z,7.80
2023-02-27T09:58:01.538Z,7.78
2023-02-27T10:00:49.181Z,8.32
2023-02-27T10:03:32.900Z,12.77
2023-02-27T10:06:14.302Z,5.80
2023-02-27T10:09:19.264Z,5.93
2023-02-27T10:12:07.475Z,6.30
2023-02-27T10:14:58.893Z,9.23
2023-02-27T10:17:33.333Z,5.45
2023-02-27T10:20:04.650Z,6.35
2023-02-27T10:22:36.503Z,7.18
2023-02-27T10:25:18.066Z,5.50
2023-02-27T10:27:50.188Z,5.03
2023-02-27T10:30:29.738Z,5.47
2023-02-27T10:33:15.509Z,5.90
2023-02-27T10:35:44.716Z,7.25
2023-02-27T10:38:12.902Z,5.47
2023-02-27T10:40:41.462Z,5.47
2023-02-27T10:43:08.532Z,3.70
2023-02-27T10:48:05.128Z,3.63
2023-02-27T10:50:37.116Z,5.28
2023-02-27T10:53:07.876Z,2.75
2023-02-27T10:55:38.393Z,3.50
2023-02-27T10:58:05.867Z,3.00
2023-02-27T11:00:38.017Z,2.55
2023-02-27T11:03:05.308Z,4.15
2023-02-27T11:08:33.207Z,4.03
2023-02-27T11:11:06.163Z,5.13
2023-02-27T11:13:35.381Z,5.77
2023-02-27T11:16:16.934Z,5.90
2023-02-27T11:18:45.654Z,3.75
2023-02-27T11:21:27.865Z,2.20
2023-02-27T11:23:59.356Z,3.20
2023-02-27T11:26:30.416Z,4.13
2023-02-27T11:29:23.647Z,3.63
2023-02-27T11:32:03.538Z,7.10
2023-02-27T11:34:36.288Z,6.60
2023-02-27T11:37:07.075Z,7.90
2023-02-27T11:39:37.740Z,7.90
2023-02-27T11:42:17.625Z,6.82
2023-02-27T11:44:55.297Z,4.47
2023-02-27T11:47:26.919Z,3.33
2023-02-27T11:50:14.699Z,4.47
2023-02-27T11:52:50.857Z,4.20
2023-02-27T11:55:21.774Z,3.15
2023-02-27T11:57:54.531Z,3.22
2023-02-27T12:00:29.717Z,4.00
2023-02-27T12:03:04.146Z,3.05
2023-02-27T12:05:39.044Z,3.42
2023-02-27T12:08:42.720Z,3.85
2023-02-27T12:11:33.016Z,6.95
2023-02-27T12:14:09.039Z,4.80
2023-02-27T12:16:42.588Z,3.00
2023-02-27T12:19:18.422Z,3.03
2023-02-27T12:21:52.139Z,3.50
2023-02-27T12:24:24.164Z,3.30
2023-02-27T12:27:07.090Z,2.30
2023-02-27T12:29:39.805Z,2.88
2023-02-27T12:32:25.946Z,2.95
2023-02-27T12:35:02.084Z,1.67
2023-02-27T12:37:29.909Z,3.03
2023-02-27T12:39:59.782Z,2.63
2023-02-27T12:42:35.198Z,4.28
2023-02-27T12:45:11.287Z,2.08
2023-02-27T12:48:08.710Z,2.63
2023-02-27T12:51:01.404Z,5.05
2023-02-27T12:54:08.735Z,2.63
2023-02-27T12:56:56.959Z,2.25
2023-02-27T12:59:32.326Z,4.40
2023-02-27T13:02:13.692Z,2.38
2023-02-27T13:05:08.611Z,3.78
2023-02-27T13:07:43.267Z,3.17
2023-02-27T13:10:17.618Z,2.38
2023-02-27T13:12:57.311Z,3.65
2023-02-27T13:15:45.762Z,1.80
2023-02-27T13:18:37.212Z,2.20
2023-02-27T13:21:32.222Z,2.42
2023-02-27T13:24:05.709Z,1.88
2023-02-27T13:26:38.516Z,2.83
2023-02-27T13:29:06.639Z,3.00
2023-02-27T13:31:42.182Z,7.85
2023-02-27T13:34:18.662Z,2.78
2023-02-27T13:36:51.178Z,2.10
2023-02-27T13:39:45.907Z,3.30
2023-02-27T13:42:27.469Z,2.83
2023-02-27T13:44:56.548Z,1.98
2023-02-27T13:47:29.015Z,2.00
2023-02-27T13:49:56.898Z,1.40
2023-02-27T13:52:50.006Z,2.33
2023-02-27T13:55:28.471Z,1.73
2023-02-27T13:57:59.474Z,0.95
2023-02-27T14:00:29.291Z,3.35
2023-02-27T14:03:07.682Z,1.63
2023-02-27T14:05:45.423Z,1.65
2023-02-27T14:08:11.903Z,1.48
2023-02-27T14:10:41.773Z,4.28
2023-02-27T14:13:59.728Z,2.25
2023-02-27T14:16:38.613Z,2.28
2023-02-27T14:19:11.222Z,1.98
2023-02-27T14:21:57.495Z,1.33
2023-02-27T14:25:02.576Z,2.00
2023-02-27T14:27:44.513Z,1.25
2023-02-27T14:30:33.063Z,1.23
2023-02-27T14:33:37.740Z,1.27
2023-02-27T14:36:16.254Z,2.22
2023-02-27T14:38:43.354Z,1.85
2023-02-27T14:41:32.586Z,2.72
2023-02-27T14:43:59.929Z,2.25
2023-02-27T14:46:34.812Z,4.97
2023-02-27T14:49:08.401Z,1.90
2023-02-27T14:51:37.561Z,1.33
2023-02-27T14:54:27.691Z,3.10
2023-02-27T14:57:01.531Z,1.90
2023-02-27T14:59:31.437Z,4.65
2023-02-27T15:02:02.166Z,2.22
2023-02-27T15:04:31.213Z,3.20
2023-02-27T15:06:59.573Z,2.97
2023-02-27T15:09:43.507Z,2.80
2023-02-27T15:12:17.494Z,2.08
2023-02-27T15:14:49.732Z,1.60
2023-02-27T15:17:19.784Z,2.70
2023-02-27T15:19:56.718Z,2.35
2023-02-27T15:22:38.632Z,2.65
2023-02-27T15:25:07.855Z,2.75
2023-02-27T15:27:37.256Z,3.60
2023-02-27T15:30:04.760Z,4.35
2023-02-27T15:32:38.035Z,7.43
2023-02-27T15:35:13.656Z,4.20
2023-02-27T15:37:41.888Z,5.07
2023-02-27T15:40:13.777Z,5.10
2023-02-27T15:42:40.297Z,4.72
2023-02-27T15:45:07.530Z,5.82
2023-02-27T15:47:35.402Z,5.47
2023-02-27T15:50:21.592Z,6.30
2023-02-27T15:52:54.789Z,5.30
2023-02-27T15:55:31.543Z,5.47
2023-02-27T15:58:03.737Z,4.45
2023-02-27T16:00:33.531Z,6.90
2023-02-27T16:03:00.573Z,4.32
2023-02-27T16:08:02.645Z,4.68
2023-02-27T16:10:41.425Z,3.00
2023-02-27T16:13:25.732Z,3.70
2023-02-27T16:16:04.881Z,5.07
2023-02-27T16:18:43.843Z,4.85
2023-02-27T16:21:25.827Z,6.60
2023-02-27T16:23:53.978Z,6.88
2023-02-27T16:26:36.822Z,5.75
2023-02-27T16:29:18.278Z,10.63
2023-02-27T16:31:51.914Z,12.05
2023-02-27T16:34:44.699Z,12.10
2023-02-27T16:37:24.534Z,12.05
2023-02-27T16:39:54.728Z,10.23
2023-02-27T16:42:21.898Z,10.37
2023-02-27T16:44:48.447Z,4.53
2023-02-27T16:47:14.989Z,3.25
2023-02-27T16:49:41.551Z,3.58
2023-02-27T16:52:12.133Z,3.60
2023-02-27T16:54:38.732Z,1.80
2023-02-27T16:57:05.248Z,4.07
2023-02-27T16:59:41.774Z,2.63
2023-02-27T17:02:13.357Z,2.22
2023-02-27T17:04:43.947Z,2.42
2023-02-27T17:07:15.949Z,2.78
2023-02-27T17:09:47.323Z,2.00
2023-02-27T17:12:14.416Z,2.50
2023-02-27T17:17:07.354Z,3.35
2023-02-27T17:19:34.212Z,2.58
2023-02-27T17:22:00.681Z,3.25
2023-02-27T17:24:27.389Z,3.92
2023-02-27T17:26:53.905Z,4.55
2023-02-27T17:29:20.712Z,4.78
2023-02-27T17:31:47.691Z,4.63
2023-02-27T17:36:43.252Z,8.43
2023-02-27T17:41:38.133Z,6.10
2023-02-27T17:44:04.695Z,4.55
2023-02-27T17:46:31.803Z,4.65
2023-02-27T17:49:00.774Z,4.18
2023-02-27T17:51:29.283Z,3.17
2023-02-27T17:53:56.226Z,4.03
2023-02-27T17:56:23.289Z,4.25
2023-02-27T17:58:50.302Z,5.87
2023-02-27T18:03:47.689Z,4.55
2023-02-27T18:06:14.933Z,4.57
2023-02-27T18:08:41.552Z,3.53
2023-02-27T18:11:19.075Z,5.82
2023-02-27T18:13:47.056Z,4.03
2023-02-27T18:16:13.932Z,5.82
2023-02-27T18:18:42.598Z,5.55
2023-02-27T18:21:15.244Z,8.20
2023-02-27T18:23:43.394Z,7.05
2023-02-27T18:26:27.109Z,8.40
2023-02-27T18:28:56.700Z,7.75
2023-02-27T18:31:29.560Z,7.53
2023-02-27T18:33:56.093Z,7.87
2023-02-27T18:36:22.986Z,8.52
2023-02-27T18:38:49.535Z,6.32
2023-02-27T18:41:16.101Z,5.57
2023-02-27T18:43:43.963Z,5.80
2023-02-27T18:46:12.847Z,5.83
2023-02-27T18:48:44.467Z,6.83
2023-02-27T18:51:15.059Z,6.03
2023-02-27T18:53:44.703Z,9.32
2023-02-27T18:56:12.303Z,6.25
2023-02-27T18:58:42.432Z,6.82
2023-02-27T19:01:24.907Z,6.05
2023-02-27T19:03:53.248Z,6.35
2023-02-27T19:06:19.854Z,5.95
2023-02-27T19:08:46.469Z,6.00
2023-02-27T19:11:23.803Z,6.53
2023-02-27T19:13:51.032Z,5.80
2023-02-27T19:16:17.774Z,5.05
2023-02-27T19:18:44.201Z,4.95
2023-02-27T19:21:10.670Z,6.35
2023-02-27T19:23:37.169Z,5.70
2023-02-27T19:26:03.669Z,5.40
2023-02-27T19:28:30.265Z,5.85
2023-02-27T19:30:58.333Z,5.93
2023-02-27T19:33:25.014Z,6.30
2023-02-27T19:35:51.710Z,6.70
2023-02-27T19:38:18.172Z,9.65
2023-02-27T19:40:44.613Z,7.53
2023-02-27T19:43:15.179Z,6.90
2023-02-27T19:45:42.052Z,8.53
2023-02-27T19:48:11.091Z,7.13
2023-02-27T19:50:40.030Z,6.93
2023-02-27T19:53:06.650Z,6.90
2023-02-27T19:55:33.124Z,7.00
2023-02-27T19:57:59.583Z,7.00
2023-02-27T20:00:26.055Z,7.38
2023-02-27T20:02:52.485Z,6.75
2023-02-27T20:05:19.241Z,7.65
2023-02-27T20:07:47.403Z,7.35
2023-02-27T20:10:15.660Z,6.23
2023-02-27T20:12:42.489Z,6.57
2023-02-27T20:15:11.712Z,6.85
2023-02-27T20:17:39.242Z,8.00
2023-02-27T20:20:06.637Z,8.57
2023-02-27T20:22:33.189Z,5.07
2023-02-27T20:25:00.201Z,6.40
2023-02-27T20:32:23.115Z,8.07
2023-02-27T20:34:50.472Z,8.90
2023-02-27T20:37:17.215Z,8.98
2023-02-27T20:39:45.291Z,8.13
2023-02-27T20:42:14.086Z,8.97
2023-02-27T20:44:41.596Z,13.40
2023-02-27T20:47:09.072Z,14.47
2023-02-27T20:49:36.448Z,12.13
2023-02-27T20:52:03.432Z,13.20
2023-02-27T20:56:56.558Z,10.75
2023-02-27T20:59:28.674Z,12.25
2023-02-27T21:02:17.343Z,11.53
2023-02-27T21:04:59.403Z,10.70
2023-02-27T21:07:26.015Z,12.47
2023-02-27T21:09:53.108Z,9.93
2023-02-27T21:14:51.889Z,9.20
2023-02-27T21:17:30.649Z,8.37
2023-02-27T21:19:59.675Z,8.37
2023-02-27T21:22:26.164Z,6.80
2023-02-27T21:24:56.943Z,7.85
2023-02-27T21:27:23.640Z,7.00
2023-02-27T21:29:52.981Z,8.38
2023-02-27T21:32:19.507Z,8.00
2023-02-27T21:34:45.960Z,9.13
2023-02-27T21:37:12.721Z,7.93
2023-02-27T21:39:39.556Z,7.72
2023-02-27T21:42:07.387Z,7.63
2023-02-27T21:44:34.061Z,6.27
2023-02-27T21:47:09.734Z,7.68
2023-02-27T21:49:36.900Z,7.50
2023-02-27T21:52:03.330Z,6.43
2023-02-27T21:54:29.811Z,8.18
2023-02-27T21:56:58.572Z,6.60
2023-02-27T21:59:25.845Z,8.23
2023-02-27T22:01:52.430Z,8.87
2023-02-27T22:04:19.981Z,8.00
2023-02-27T22:06:47.917Z,8.73
2023-02-27T22:09:14.743Z,8.27
2023-02-27T22:11:41.322Z,8.77
2023-02-27T22:14:08.915Z,11.00
2023-02-27T22:16:35.509Z,10.43
2023-02-27T22:19:11.284Z,11.32
2023-02-27T22:21:38.156Z,8.27
2023-02-27T22:24:05.141Z,10.23
2023-02-27T22:31:35.008Z,9.70
2023-02-27T22:34:12.226Z,10.43
2023-02-27T22:36:39.350Z,8.87
2023-02-27T22:44:01.874Z,12.50
2023-02-27T22:46:31.562Z,10.00
2023-02-27T22:49:01.840Z,9.90
2023-02-27T22:51:29.498Z,10.40
2023-02-27T22:53:58.238Z,10.83
2023-02-27T22:56:26.232Z,10.20
2023-02-27T22:58:53.216Z,9.55
2023-02-27T23:03:50.022Z,11.50
2023-02-27T23:06:19.966Z,12.67
2023-02-27T23:08:46.887Z,9.83
2023-02-27T23:11:17.714Z,11.25
2023-02-27T23:13:44.145Z,9.77
2023-02-27T23:16:13.682Z,8.80
2023-02-27T23:18:42.019Z,9.03
2023-02-27T23:21:09.625Z,13.13
2023-02-27T23:23:36.279Z,12.33
2023-02-27T23:26:03.580Z,11.88
2023-02-27T23:28:30.473Z,9.93
2023-02-27T23:30:57.074Z,11.95
2023-02-27T23:33:23.513Z,9.40
2023-02-27T23:35:50.643Z,12.52
2023-02-27T23:38:17.530Z,10.60
2023-02-27T23:40:43.954Z,9.60
2023-02-27T23:43:10.768Z,10.40
2023-02-27T23:45:37.263Z,11.73
2023-02-27T23:48:04.455Z,12.80
2023-02-27T23:50:35.649Z,9.80
2023-02-27T23:53:02.216Z,9.80
2023-02-27T23:55:30.447Z,10.95
2023-02-27T23:57:58.566Z,9.60
